Time;durP1;ratioP1;P1;durP2;ratioP2;P2;SDS_P1;SDS_P2;PMS_P1;PMS_P2;Temp;Humidity;BMP_temperature;BMP_pressure;BME280_temperature;BME280_humidity;BME280_pressure;Samples;Min_cycle;Max_cycle;Signal;HPM_P1;HPM_P2
2022/07/16 00:02:15;;;;;;;4.53;1.83;;;26.00;72.30;;;;;;5052654;28;20039;-27
2022/07/16 00:04:41;;;;;;;4.05;1.60;;;26.00;72.40;;;;;;5051952;28;20029;-27
2022/07/16 00:07:06;;;;;;;1.98;1.55;;;26.00;72.50;;;;;;5052514;28;20075;-28
2022/07/16 00:09:32;;;;;;;2.85;1.85;;;25.90;72.40;;;;;;5034184;28;20481;-27
2022/07/16 00:11:58;;;;;;;2.42;1.60;;;25.90;72.40;;;;;;5052477;28;20021;-27
2022/07/16 00:14:23;;;;;;;2.15;1.70;;;25.90;72.40;;;;;;5052615;28;20079;-27
2022/07/16 00:16:49;;;;;;;2.28;1.40;;;25.90;72.40;;;;;;5052271;28;20032;-27
2022/07/16 00:19:21;;;;;;;3.45;1.60;;;25.90;72.40;;;;;;5051925;28;20029;-27
2022/07/16 00:21:48;;;;;;;6.38;1.80;;;25.90;72.40;;;;;;5052312;28;20496;-27
2022/07/16 00:24:15;;;;;;;3.13;1.88;;;25.90;72.40;;;;;;5052205;28;20056;-27
2022/07/16 00:26:42;;;;;;;2.53;1.67;;;25.90;72.40;;;;;;5052275;28;20064;-27
2022/07/16 00:29:08;;;;;;;6.30;1.77;;;25.90;72.40;;;;;;5052002;28;20035;-27
2022/07/16 00:31:35;;;;;;;3.20;1.98;;;25.90;72.40;;;;;;5052015;28;20100;-27
2022/07/16 00:34:01;;;;;;;3.72;1.70;;;25.90;72.40;;;;;;5052146;28;20036;-27
2022/07/16 00:36:27;;;;;;;1.85;1.65;;;25.80;72.30;;;;;;5052030;28;20116;-27
2022/07/16 00:38:52;;;;;;;3.75;1.90;;;25.80;72.30;;;;;;5051708;28;20053;-27
2022/07/16 00:41:18;;;;;;;3.15;2.10;;;25.80;72.40;;;;;;5052050;28;20363;-28
2022/07/16 00:43:56;;;;;;;4.35;1.45;;;25.80;72.30;;;;;;5052051;28;20492;-27
2022/07/16 00:46:21;;;;;;;4.18;1.80;;;25.80;72.30;;;;;;5052374;28;20032;-27
2022/07/16 00:48:47;;;;;;;2.20;1.70;;;25.80;72.30;;;;;;5051660;28;20020;-27
2022/07/16 00:51:14;;;;;;;3.22;1.67;;;25.80;72.30;;;;;;5051926;28;20027;-27
2022/07/16 00:53:41;;;;;;;4.07;2.00;;;25.80;72.30;;;;;;5051871;28;20067;-27
2022/07/16 00:56:09;;;;;;;2.65;1.90;;;25.80;72.30;;;;;;5051801;28;20039;-27
2022/07/16 00:58:40;;;;;;;2.35;1.83;;;25.80;72.30;;;;;;5051537;28;20524;-27
2022/07/16 01:01:08;;;;;;;3.95;1.73;;;25.80;72.30;;;;;;5051829;28;20032;-27
2022/07/16 01:03:34;;;;;;;2.13;1.73;;;25.80;72.30;;;;;;5051919;28;20025;-27
2022/07/16 01:06:02;;;;;;;2.00;1.80;;;25.80;72.30;;;;;;5051795;28;20044;-27
2022/07/16 01:08:28;;;;;;;2.63;1.80;;;25.80;72.30;;;;;;5051356;28;20055;-27
2022/07/16 01:10:55;;;;;;;5.10;1.80;;;25.80;72.30;;;;;;5051824;28;20025;-27
2022/07/16 01:13:21;;;;;;;2.70;1.67;;;25.80;72.30;;;;;;5051692;28;20032;-27
2022/07/16 01:15:47;;;;;;;2.30;2.10;;;25.80;72.30;;;;;;5051570;28;20393;-27
2022/07/16 01:18:13;;;;;;;2.00;1.80;;;25.80;72.30;;;;;;5054445;28;20017;-27
2022/07/16 01:20:39;;;;;;;1.95;1.80;;;25.70;72.30;;;;;;5055654;28;20432;-27
2022/07/16 01:23:06;;;;;;;3.72;1.70;;;25.70;72.30;;;;;;5056027;28;20021;-27
2022/07/16 01:25:32;;;;;;;3.25;1.80;;;25.80;72.30;;;;;;5055634;28;20111;-27
2022/07/16 01:27:58;;;;;;;4.25;1.77;;;25.80;72.30;;;;;;5055425;28;20098;-27
2022/07/16 01:30:24;;;;;;;2.33;1.80;;;25.70;72.20;;;;;;5055233;28;20377;-27
2022/07/16 01:32:49;;;;;;;1.75;1.40;;;25.80;72.30;;;;;;5055497;28;20029;-27
2022/07/16 01:35:15;;;;;;;2.80;2.00;;;25.80;72.30;;;;;;5055329;28;20036;-27
2022/07/16 01:37:41;;;;;;;2.97;1.98;;;25.70;72.20;;;;;;5055353;28;20033;-28
2022/07/16 01:40:07;;;;;;;3.05;1.98;;;25.70;72.10;;;;;;5055055;28;20043;-27
2022/07/16 01:42:32;;;;;;;2.50;1.90;;;25.70;72.20;;;;;;5055158;28;20025;-27
2022/07/16 01:44:59;;;;;;;2.35;1.75;;;25.70;72.20;;;;;;5055353;28;20061;-27
2022/07/16 01:47:24;;;;;;;2.42;1.70;;;25.70;72.20;;;;;;5055208;28;20532;-27
2022/07/16 01:49:50;;;;;;;3.22;2.05;;;25.70;72.20;;;;;;5054850;28;20033;-27
2022/07/16 01:52:21;;;;;;;4.10;1.98;;;25.70;72.10;;;;;;5055095;28;20070;-27
2022/07/16 01:54:52;;;;;;;3.08;2.05;;;25.70;72.10;;;;;;5055086;28;20102;-27
2022/07/16 01:57:19;;;;;;;2.70;1.92;;;25.70;72.10;;;;;;5054995;28;20039;-27
2022/07/16 01:59:45;;;;;;;2.88;1.83;;;25.70;72.20;;;;;;5054597;28;20359;-27
2022/07/16 02:02:11;;;;;;;3.53;2.05;;;25.70;72.10;;;;;;5054934;28;20028;-27
2022/07/16 02:04:38;;;;;;;2.60;1.90;;;25.70;72.10;;;;;;5054862;28;20117;-27
2022/07/16 02:07:04;;;;;;;2.45;1.83;;;25.70;72.20;;;;;;5054887;28;20393;-27
2022/07/16 02:09:30;;;;;;;2.90;1.80;;;25.70;72.10;;;;;;5054290;28;20490;-27
2022/07/16 02:11:56;;;;;;;3.25;1.80;;;25.70;72.10;;;;;;5054650;28;20041;-27
2022/07/16 02:14:22;;;;;;;3.00;2.00;;;25.70;72.10;;;;;;5054641;28;20028;-27
2022/07/16 02:16:48;;;;;;;2.40;2.00;;;25.60;72.10;;;;;;5036664;28;20068;-27
2022/07/16 02:19:13;;;;;;;2.53;1.80;;;25.60;72.10;;;;;;5054254;28;20116;-27
2022/07/16 02:21:39;;;;;;;2.85;1.70;;;25.60;72.00;;;;;;5054950;28;20096;-27
2022/07/16 02:24:05;;;;;;;4.45;1.80;;;25.60;72.10;;;;;;5036470;28;20028;-27
2022/07/16 02:26:31;;;;;;;2.75;1.88;;;25.60;72.10;;;;;;5054462;28;20052;-27
2022/07/16 02:28:57;;;;;;;2.58;1.90;;;25.60;72.10;;;;;;5053609;28;20107;-27
2022/07/16 02:31:22;;;;;;;4.20;1.83;;;25.60;72.10;;;;;;5054383;28;20032;-27
2022/07/16 02:33:48;;;;;;;2.05;1.85;;;25.60;72.10;;;;;;5054455;28;20536;-27
2022/07/16 02:36:14;;;;;;;2.30;2.10;;;25.50;72.00;;;;;;5054199;28;20068;-27
2022/07/16 02:38:39;;;;;;;3.90;2.00;;;25.60;72.10;;;;;;5053856;28;20029;-27
2022/07/16 02:41:05;;;;;;;2.10;1.80;;;25.60;72.10;;;;;;5054203;28;20074;-27
2022/07/16 02:43:31;;;;;;;3.22;2.05;;;25.50;72.00;;;;;;5054098;28;20027;-27
2022/07/16 02:45:57;;;;;;;2.60;1.73;;;25.50;72.00;;;;;;5054135;28;20024;-27
2022/07/16 02:48:23;;;;;;;2.42;1.67;;;25.50;72.10;;;;;;5053701;28;20044;-27
2022/07/16 02:50:48;;;;;;;2.05;1.80;;;25.50;72.90;;;;;;5054057;28;20029;-27
2022/07/16 02:53:14;;;;;;;2.75;1.88;;;25.50;72.10;;;;;;5053880;28;20588;-27
2022/07/16 02:55:40;;;;;;;2.40;1.60;;;25.50;72.10;;;;;;5053904;28;20052;-27
2022/07/16 02:58:06;;;;;;;2.85;2.30;;;25.50;72.10;;;;;;5053707;28;20021;-27
2022/07/16 03:00:32;;;;;;;2.30;1.98;;;25.50;72.10;;;;;;5053733;28;20476;-27
2022/07/16 03:02:58;;;;;;;4.60;1.60;;;25.50;72.10;;;;;;5053791;28;20436;-27
2022/07/16 03:05:24;;;;;;;4.43;1.90;;;25.50;72.10;;;;;;5053740;28;20569;-27
2022/07/16 03:07:50;;;;;;;2.05;1.70;;;25.50;72.10;;;;;;5053618;28;20100;-27
2022/07/16 03:10:16;;;;;;;4.43;1.90;;;25.50;72.10;;;;;;5053267;28;20033;-27
2022/07/16 03:12:41;;;;;;;2.50;1.70;;;25.50;72.10;;;;;;5053571;28;20055;-27
2022/07/16 03:15:09;;;;;;;2.70;1.90;;;25.40;72.10;;;;;;5053499;28;20029;-27
2022/07/16 03:17:35;;;;;;;1.83;1.65;;;25.40;72.00;;;;;;5053542;28;20351;-27
2022/07/16 03:20:01;;;;;;;3.28;1.67;;;25.40;72.00;;;;;;5035498;28;20045;-27
2022/07/16 03:22:26;;;;;;;2.15;1.92;;;25.40;72.10;;;;;;5053292;28;20063;-27
2022/07/16 03:24:52;;;;;;;2.10;1.80;;;25.40;72.00;;;;;;5053387;28;20021;-27
2022/07/16 03:27:18;;;;;;;2.47;1.90;;;25.40;72.00;;;;;;5053336;28;20032;-27
2022/07/16 03:29:43;;;;;;;3.03;2.20;;;25.40;72.00;;;;;;5052975;28;20049;-27
2022/07/16 03:32:09;;;;;;;3.22;1.75;;;25.40;72.10;;;;;;5053209;28;20052;-27
2022/07/16 03:34:35;;;;;;;4.00;1.73;;;25.40;72.10;;;;;;5035271;28;20021;-27
2022/07/16 03:37:01;;;;;;;2.40;1.88;;;25.30;72.00;;;;;;5052986;28;20025;-27
2022/07/16 03:39:27;;;;;;;2.58;1.95;;;25.30;72.00;;;;;;5051961;28;20386;-27
2022/07/16 03:41:53;;;;;;;2.55;1.80;;;25.30;72.00;;;;;;5052994;28;20020;-27
2022/07/16 03:44:18;;;;;;;2.92;1.90;;;25.30;72.00;;;;;;5053003;28;20466;-27
2022/07/16 03:46:44;;;;;;;2.88;2.20;;;25.30;72.00;;;;;;5052931;28;20055;-27
2022/07/16 03:49:10;;;;;;;2.28;1.73;;;25.30;72.10;;;;;;5053007;28;20036;-27
2022/07/16 03:51:35;;;;;;;3.15;1.90;;;25.30;72.00;;;;;;5052762;28;20029;-27
2022/07/16 03:54:04;;;;;;;2.00;1.80;;;25.30;72.10;;;;;;5052779;28;20482;-27
2022/07/16 03:56:31;;;;;;;2.20;1.98;;;25.30;72.10;;;;;;5052613;28;20118;-27
2022/07/16 03:58:57;;;;;;;3.13;1.90;;;25.20;72.00;;;;;;5052389;28;20382;-28
2022/07/16 04:01:23;;;;;;;2.55;1.70;;;25.20;72.00;;;;;;5052649;28;20025;-27
2022/07/16 04:03:49;;;;;;;2.97;2.05;;;25.20;72.00;;;;;;5052613;28;20023;-27
2022/07/16 04:06:15;;;;;;;2.70;1.90;;;25.20;72.10;;;;;;5052532;28;20100;-27
2022/07/16 04:08:41;;;;;;;2.63;2.00;;;25.20;72.10;;;;;;5052118;28;20025;-27
2022/07/16 04:11:07;;;;;;;2.90;1.65;;;25.20;72.20;;;;;;5052484;28;20166;-28
2022/07/16 04:13:33;;;;;;;2.60;1.80;;;25.10;72.20;;;;;;5052478;28;20099;-27
2022/07/16 04:15:58;;;;;;;4.28;1.85;;;25.10;72.20;;;;;;5052304;28;20025;-27
2022/07/16 04:18:24;;;;;;;3.70;1.90;;;25.10;72.20;;;;;;5052063;28;20033;-27
2022/07/16 04:20:50;;;;;;;2.67;1.73;;;25.10;72.20;;;;;;5052202;28;20028;-27
2022/07/16 04:23:15;;;;;;;2.53;1.70;;;25.10;73.10;;;;;;5052287;28;20044;-27
2022/07/16 04:25:41;;;;;;;2.60;1.90;;;25.10;72.30;;;;;;5052253;28;20112;-28
2022/07/16 04:28:07;;;;;;;2.15;1.80;;;25.00;72.20;;;;;;5052098;28;20025;-27
2022/07/16 04:30:33;;;;;;;4.13;1.92;;;25.00;72.20;;;;;;5052025;28;20475;-28
2022/07/16 04:32:58;;;;;;;1.95;1.75;;;25.00;72.20;;;;;;5052149;28;20024;-27
2022/07/16 04:35:24;;;;;;;3.13;2.17;;;25.00;72.20;;;;;;5052027;28;20033;-28
2022/07/16 04:37:50;;;;;;;2.47;1.75;;;25.00;72.30;;;;;;5052026;28;20475;-27
2022/07/16 04:40:16;;;;;;;2.65;1.80;;;25.00;72.30;;;;;;5051779;28;20035;-28
2022/07/16 04:42:43;;;;;;;2.72;1.88;;;25.00;72.30;;;;;;5052035;28;20502;-27
2022/07/16 04:45:10;;;;;;;4.10;1.70;;;25.00;72.30;;;;;;5051992;28;20023;-27
2022/07/16 04:47:37;;;;;;;2.55;1.63;;;24.90;72.20;;;;;;5051932;28;20025;-27
2022/07/16 04:50:04;;;;;;;2.45;1.92;;;24.90;72.20;;;;;;5051608;28;20029;-27
2022/07/16 04:52:30;;;;;;;2.55;1.83;;;24.90;72.20;;;;;;5051720;28;20478;-27
2022/07/16 04:54:57;;;;;;;2.88;1.73;;;24.90;72.30;;;;;;5051780;28;20029;-27
2022/07/16 04:57:22;;;;;;;3.72;1.58;;;24.90;72.20;;;;;;5051850;28;20040;-27
2022/07/16 04:59:48;;;;;;;3.90;1.90;;;24.90;72.30;;;;;;5051521;28;20017;-27
2022/07/16 05:04:58;;;;;;;2.40;1.80;;;24.90;73.00;;;;;;5051868;28;20445;-27
2022/07/16 05:07:24;;;;;;;2.58;1.63;;;24.90;72.30;;;;;;5033859;28;20064;-28
2022/07/16 05:09:50;;;;;;;2.33;1.80;;;24.90;72.30;;;;;;5062136;22;20041;-25
2022/07/16 05:12:15;;;;;;;3.45;1.98;;;24.90;73.10;;;;;;5031479;28;20021;-25
2022/07/16 05:14:41;;;;;;;2.58;1.70;;;24.90;72.40;;;;;;5031700;28;20053;-25
2022/07/16 05:17:06;;;;;;;2.20;1.90;;;24.90;72.30;;;;;;5031651;28;20114;-25
2022/07/16 05:19:32;;;;;;;3.25;1.98;;;24.90;72.30;;;;;;5031473;28;20024;-25
2022/07/16 05:21:58;;;;;;;2.80;1.63;;;24.90;72.40;;;;;;5031648;28;20513;-25
2022/07/16 05:24:23;;;;;;;2.55;1.55;;;24.90;72.40;;;;;;5031557;28;20414;-25
2022/07/16 05:26:50;;;;;;;2.03;1.50;;;24.90;72.40;;;;;;5031654;28;20059;-25
2022/07/16 05:29:15;;;;;;;3.20;1.70;;;24.90;72.30;;;;;;5033076;28;20032;-25
2022/07/16 05:31:41;;;;;;;2.92;1.92;;;24.90;72.40;;;;;;5037651;28;20030;-25
2022/07/16 05:34:07;;;;;;;2.20;1.67;;;24.90;72.40;;;;;;5036747;28;20029;-25
2022/07/16 05:36:32;;;;;;;2.10;1.63;;;24.90;72.40;;;;;;5032003;28;20033;-25
2022/07/16 05:38:58;;;;;;;3.05;1.63;;;24.90;72.40;;;;;;5031492;28;20021;-25
2022/07/16 05:41:24;;;;;;;2.22;1.83;;;24.90;72.40;;;;;;5031943;28;20014;-25
2022/07/16 05:43:49;;;;;;;2.35;1.80;;;24.80;72.30;;;;;;5032204;28;20453;-25
2022/07/16 05:46:15;;;;;;;2.20;1.42;;;24.90;72.40;;;;;;5032741;28;20037;-25
2022/07/16 05:48:41;;;;;;;2.35;1.67;;;24.80;72.30;;;;;;5031256;28;20108;-26
2022/07/16 05:51:07;;;;;;;2.20;1.80;;;24.90;72.40;;;;;;5031423;28;20041;-25
2022/07/16 05:53:32;;;;;;;3.17;1.50;;;24.90;72.50;;;;;;5031447;28;20032;-25
2022/07/16 05:55:58;;;;;;;2.35;1.73;;;24.80;72.50;;;;;;5031353;28;20052;-25
2022/07/16 05:58:24;;;;;;;2.72;1.95;;;24.80;72.50;;;;;;5031282;28;20030;-25
2022/07/16 06:00:49;;;;;;;3.08;1.80;;;24.80;72.50;;;;;;5031235;28;20029;-25
2022/07/16 06:03:15;;;;;;;3.15;1.70;;;24.80;72.50;;;;;;5032790;28;20032;-25
2022/07/16 06:05:41;;;;;;;1.90;1.60;;;24.80;72.60;;;;;;5035274;28;20025;-25
2022/07/16 06:08:06;;;;;;;2.58;1.67;;;24.80;72.60;;;;;;5034880;28;20030;-25
2022/07/16 06:10:32;;;;;;;2.00;1.80;;;24.80;72.60;;;;;;5034703;28;20068;-25
2022/07/16 06:12:58;;;;;;;1.58;1.42;;;24.80;72.70;;;;;;5034735;28;20376;-26
2022/07/16 06:15:23;;;;;;;1.75;1.65;;;24.80;72.70;;;;;;5035058;28;20036;-25
2022/07/16 06:17:49;;;;;;;3.20;1.80;;;24.80;72.70;;;;;;5034649;28;20057;-25
2022/07/16 06:20:15;;;;;;;3.13;1.73;;;24.80;72.70;;;;;;5016693;28;20103;-25
2022/07/16 06:22:40;;;;;;;2.15;1.55;;;24.80;72.80;;;;;;5034565;28;20013;-25
2022/07/16 06:25:06;;;;;;;2.45;1.65;;;24.80;72.80;;;;;;5034961;28;20021;-25
2022/07/16 06:27:32;;;;;;;2.28;1.73;;;24.80;72.80;;;;;;5034827;28;20060;-25
2022/07/16 06:30:05;;;;;;;3.60;1.75;;;24.80;72.90;;;;;;5034027;28;20049;-25
2022/07/16 06:32:31;;;;;;;2.75;1.80;;;24.80;72.90;;;;;;5035012;28;20026;-25
2022/07/16 06:34:57;;;;;;;3.03;1.88;;;24.80;72.90;;;;;;5016546;28;20079;-25
2022/07/16 06:37:22;;;;;;;1.70;1.60;;;24.80;72.90;;;;;;5034264;28;20033;-25
2022/07/16 06:39:48;;;;;;;2.03;1.67;;;24.80;72.90;;;;;;5033931;28;20578;-25
2022/07/16 06:42:13;;;;;;;1.98;1.50;;;24.80;72.90;;;;;;5034197;28;20040;-25
2022/07/16 06:44:40;;;;;;;3.15;1.50;;;24.80;72.90;;;;;;5034025;28;20108;-25
2022/07/16 06:47:06;;;;;;;2.60;1.85;;;24.80;72.90;;;;;;5034185;28;20029;-24
2022/07/16 06:49:32;;;;;;;2.03;1.48;;;24.80;72.90;;;;;;5033818;28;20117;-25
2022/07/16 06:51:57;;;;;;;2.75;1.70;;;24.80;72.90;;;;;;5036545;28;20029;-25
2022/07/16 06:54:23;;;;;;;2.33;1.75;;;24.80;72.90;;;;;;5035959;28;20022;-25
2022/07/16 06:56:49;;;;;;;4.80;1.55;;;24.80;72.90;;;;;;5033659;28;20112;-25
2022/07/16 06:59:14;;;;;;;3.30;1.35;;;24.50;70.10;;;;;;5033339;28;20026;-26
2022/07/16 07:01:40;;;;;;;4.55;1.65;;;24.20;69.80;;;;;;5033831;28;20018;-26
2022/07/16 07:04:05;;;;;;;4.10;1.60;;;23.80;70.00;;;;;;5034009;28;20029;-26
2022/07/16 07:06:31;;;;;;;2.88;1.10;;;23.60;71.30;;;;;;5033791;28;20029;-26
2022/07/16 07:08:57;;;;;;;5.32;1.15;;;23.80;71.60;;;;;;5033274;28;20375;-26
2022/07/16 07:11:22;;;;;;;4.15;1.60;;;24.00;71.60;;;;;;5033716;28;20030;-26
2022/07/16 07:13:48;;;;;;;5.28;1.70;;;24.10;71.20;;;;;;5033489;28;20501;-26
2022/07/16 07:16:14;;;;;;;4.65;1.60;;;24.20;70.80;;;;;;5015794;28;20037;-26
2022/07/16 07:18:40;;;;;;;3.40;1.38;;;24.40;70.60;;;;;;5033119;28;20025;-26
2022/07/16 07:21:05;;;;;;;2.03;1.13;;;24.50;70.50;;;;;;5033342;28;20032;-26
2022/07/16 07:23:31;;;;;;;4.90;1.63;;;24.50;70.40;;;;;;5033457;28;20032;-26
2022/07/16 07:25:57;;;;;;;4.55;1.60;;;24.60;70.50;;;;;;5033428;28;20057;-25
2022/07/16 07:28:23;;;;;;;6.22;1.33;;;24.60;70.40;;;;;;5033419;28;20029;-26
2022/07/16 07:30:48;;;;;;;4.85;1.58;;;24.60;70.50;;;;;;5033286;28;20059;-25
2022/07/16 07:33:14;;;;;;;3.30;1.33;;;24.60;70.50;;;;;;5033350;28;20525;-26
2022/07/16 07:35:40;;;;;;;2.70;1.35;;;24.70;70.50;;;;;;5033167;28;20037;-25
2022/07/16 07:38:06;;;;;;;2.78;1.30;;;24.70;70.60;;;;;;5033104;28;20054;-25
2022/07/16 07:40:32;;;;;;;4.07;1.38;;;24.70;70.60;;;;;;5032855;28;20017;-25
2022/07/16 07:42:59;;;;;;;3.17;1.20;;;24.70;70.60;;;;;;5032931;28;20022;-25
2022/07/16 07:45:26;;;;;;;2.80;1.30;;;24.80;70.60;;;;;;5033027;28;20096;-25
2022/07/16 07:47:52;;;;;;;4.30;1.38;;;24.80;70.70;;;;;;5032877;28;20021;-26
2022/07/16 07:50:18;;;;;;;3.40;1.20;;;24.80;70.70;;;;;;5032749;28;20056;-25
2022/07/16 07:52:43;;;;;;;2.25;1.35;;;24.80;70.70;;;;;;5032968;28;20061;-26
2022/07/16 07:55:09;;;;;;;1.95;1.13;;;24.90;70.70;;;;;;5032801;28;20076;-25
2022/07/16 07:57:35;;;;;;;2.20;1.17;;;24.90;70.70;;;;;;5032639;28;20037;-25
2022/07/16 08:00:01;;;;;;;2.03;1.30;;;24.90;70.70;;;;;;5032503;28;20120;-26
2022/07/16 08:02:27;;;;;;;1.77;1.15;;;24.90;70.70;;;;;;5032734;28;20017;-25
2022/07/16 08:04:52;;;;;;;1.80;1.25;;;24.90;70.70;;;;;;5032649;28;20026;-25
2022/07/16 08:07:18;;;;;;;1.45;1.10;;;24.90;70.80;;;;;;5032595;28;20160;-26
2022/07/16 08:09:44;;;;;;;2.33;1.20;;;24.90;70.80;;;;;;5014483;28;20131;-25
2022/07/16 08:12:10;;;;;;;1.92;1.05;;;24.90;70.80;;;;;;5032367;28;20056;-25
2022/07/16 08:14:36;;;;;;;2.88;1.30;;;24.90;70.80;;;;;;5032515;28;20383;-25
2022/07/16 08:17:03;;;;;;;1.23;0.85;;;24.90;70.80;;;;;;5032403;28;20028;-26
2022/07/16 08:19:30;;;;;;;1.83;1.10;;;24.90;70.90;;;;;;5032124;28;20422;-25
2022/07/16 08:21:56;;;;;;;2.45;1.20;;;24.90;70.90;;;;;;5032374;28;20014;-26
2022/07/16 08:27:06;;;;;;;1.55;1.10;;;24.90;71.10;;;;;;5031929;28;20494;-25
2022/07/16 08:29:32;;;;;;;2.03;1.00;;;24.90;71.10;;;;;;5031917;28;20034;-25
2022/07/16 08:31:58;;;;;;;1.88;1.00;;;24.90;71.10;;;;;;5032214;28;20536;-26
2022/07/16 08:34:24;;;;;;;1.42;0.98;;;24.90;71.10;;;;;;5032134;28;20540;-25
2022/07/16 08:36:51;;;;;;;2.05;1.13;;;24.90;71.20;;;;;;5032169;28;20017;-25
2022/07/16 08:39:17;;;;;;;2.05;1.17;;;24.90;71.20;;;;;;5031758;28;20033;-25
2022/07/16 08:41:43;;;;;;;2.22;1.20;;;25.00;71.30;;;;;;5032048;28;20025;-25
2022/07/16 08:44:13;;;;;;;1.65;1.00;;;25.00;71.30;;;;;;5032124;28;20471;-25
2022/07/16 08:46:40;;;;;;;2.05;1.00;;;24.90;71.30;;;;;;5032071;28;20037;-25
2022/07/16 08:49:06;;;;;;;2.97;1.02;;;25.00;71.40;;;;;;5031742;28;20513;-25
2022/07/16 08:51:34;;;;;;;1.92;1.10;;;25.00;71.40;;;;;;5014360;28;20032;-25
2022/07/16 08:54:27;;;;;;;1.80;1.20;;;24.90;71.40;;;;;;5014259;28;20032;-25
2022/07/16 08:56:53;;;;;;;2.13;1.00;;;25.00;71.40;;;;;;5029386;28;20051;-25
2022/07/16 08:59:19;;;;;;;5.90;1.30;;;25.00;71.40;;;;;;5031494;28;20385;-26
2022/07/16 09:01:44;;;;;;;7.72;1.63;;;24.90;68.40;;;;;;5031815;28;20026;-25
2022/07/16 09:04:10;;;;;;;6.00;1.38;;;24.80;67.20;;;;;;5031528;28;20104;-26
2022/07/16 09:06:36;;;;;;;4.20;1.50;;;24.70;66.50;;;;;;5013870;28;20068;-26
2022/07/16 09:09:02;;;;;;;3.65;1.10;;;24.60;66.40;;;;;;5031310;28;20040;-25
2022/07/16 09:11:33;;;;;;;3.00;1.00;;;24.60;66.80;;;;;;5031697;28;20037;-25
2022/07/16 09:14:13;;;;;;;5.63;1.30;;;24.60;66.90;;;;;;5031758;28;20017;-26
2022/07/16 09:16:49;;;;;;;3.00;1.20;;;24.70;67.00;;;;;;5031591;28;20087;-25
2022/07/16 09:19:18;;;;;;;1.75;1.00;;;24.80;67.20;;;;;;5031434;28;20026;-25
2022/07/16 09:22:02;;;;;;;3.92;1.30;;;24.90;67.40;;;;;;5031649;28;20443;-25
2022/07/16 09:24:52;;;;;;;4.05;1.00;;;24.90;67.60;;;;;;5031670;28;20053;-25
2022/07/16 09:27:26;;;;;;;4.18;1.02;;;24.90;67.80;;;;;;5031656;28;20033;-25
2022/07/16 09:29:56;;;;;;;2.75;1.08;;;25.00;67.90;;;;;;5031392;28;20032;-25
2022/07/16 09:32:34;;;;;;;3.38;1.20;;;25.00;68.00;;;;;;5031893;28;20109;-25
2022/07/16 09:35:01;;;;;;;2.22;1.05;;;25.00;68.10;;;;;;5031556;28;20026;-25
2022/07/16 09:37:26;;;;;;;2.85;1.20;;;25.10;68.30;;;;;;5031371;28;20021;-25
2022/07/16 09:39:52;;;;;;;3.30;1.25;;;25.00;68.30;;;;;;5035121;28;20032;-25
2022/07/16 09:42:18;;;;;;;2.67;1.10;;;25.10;68.50;;;;;;5035534;28;20018;-25
2022/07/16 09:44:44;;;;;;;1.63;0.98;;;25.10;68.70;;;;;;5035312;28;20095;-25
2022/07/16 09:47:13;;;;;;;2.42;1.23;;;25.00;68.70;;;;;;5035234;28;20383;-25
2022/07/16 09:49:40;;;;;;;2.35;1.17;;;25.00;68.80;;;;;;5034894;28;20030;-25
2022/07/16 09:52:30;;;;;;;4.43;1.20;;;25.00;68.90;;;;;;5034985;28;20504;-24
2022/07/16 09:54:56;;;;;;;2.08;1.10;;;25.10;69.10;;;;;;5035364;28;20036;-25
2022/07/16 09:57:25;;;;;;;4.70;1.20;;;25.00;66.90;;;;;;5034999;28;20021;-25
2022/07/16 09:59:52;;;;;;;3.30;1.05;;;25.00;67.40;;;;;;5034690;28;20017;-25
2022/07/16 10:02:18;;;;;;;2.95;1.10;;;25.00;67.50;;;;;;5017054;28;20025;-25
2022/07/16 10:04:44;;;;;;;2.47;1.02;;;25.10;67.70;;;;;;5035563;28;20067;-25
2022/07/16 10:07:09;;;;;;;2.63;1.00;;;25.10;67.80;;;;;;5037952;28;20030;-25
2022/07/16 10:09:36;;;;;;;3.03;1.05;;;25.20;68.00;;;;;;5037245;28;20448;-25
2022/07/16 10:12:08;;;;;;;1.95;1.00;;;25.10;68.00;;;;;;5036585;28;20040;-25
2022/07/16 10:14:36;;;;;;;3.47;1.27;;;25.20;68.20;;;;;;5035305;28;20037;-25
2022/07/16 10:17:11;;;;;;;3.72;1.10;;;25.20;68.20;;;;;;5034489;28;20104;-25
2022/07/16 10:19:37;;;;;;;2.75;1.10;;;25.30;68.40;;;;;;5034782;28;20025;-25
2022/07/16 10:22:21;;;;;;;2.28;1.00;;;25.20;68.30;;;;;;5034894;28;20092;-25
2022/07/16 10:24:52;;;;;;;2.90;1.20;;;25.30;68.50;;;;;;5034507;28;20106;-25
2022/07/16 10:27:29;;;;;;;2.75;1.15;;;25.30;68.50;;;;;;5034783;28;20033;-25
2022/07/16 10:30:18;;;;;;;2.67;0.98;;;25.30;68.60;;;;;;5034546;28;20026;-25
2022/07/16 10:32:59;;;;;;;3.38;1.02;;;25.40;68.70;;;;;;5034697;28;20029;-25
2022/07/16 10:35:43;;;;;;;4.20;1.20;;;25.40;68.70;;;;;;5034393;28;20417;-25
2022/07/16 10:38:12;;;;;;;;;;;25.40;68.80;;;;;;5035028;28;20018;-25
2022/07/16 10:40:40;;;;;;;1.77;0.90;;;25.40;68.70;;;;;;5034327;28;20031;-25
2022/07/16 10:43:13;;;;;;;3.40;0.90;;;25.50;68.90;;;;;;5034167;28;20379;-25
2022/07/16 10:45:55;;;;;;;1.50;0.77;;;25.40;68.90;;;;;;5016447;28;20022;-25
2022/07/16 10:48:37;;;;;;;2.17;1.00;;;25.50;69.00;;;;;;5033522;28;20100;-25
2022/07/16 10:51:25;;;;;;;1.25;0.90;;;25.50;69.00;;;;;;5034137;28;20497;-25
2022/07/16 10:54:02;;;;;;;1.45;0.85;;;25.50;69.00;;;;;;5034207;28;20029;-25
2022/07/16 10:56:31;;;;;;;1.50;0.90;;;25.50;69.00;;;;;;5034039;28;20030;-25
2022/07/16 10:58:58;;;;;;;1.92;1.20;;;25.50;69.00;;;;;;5033819;28;20530;-25
2022/07/16 11:01:24;;;;;;;1.48;1.00;;;25.50;69.10;;;;;;5016191;28;20049;-25
2022/07/16 11:03:51;;;;;;;1.50;1.05;;;25.50;69.10;;;;;;5034131;28;20096;-25
2022/07/16 11:06:20;;;;;;;2.38;0.90;;;25.50;69.10;;;;;;5033900;28;20083;-25
2022/07/16 11:08:52;;;;;;;4.07;0.98;;;25.60;69.20;;;;;;5033541;28;20075;-25
2022/07/16 11:11:18;;;;;;;1.52;0.80;;;25.60;69.20;;;;;;5030528;28;20049;-26
2022/07/16 11:13:46;;;;;;;2.58;1.17;;;25.60;69.20;;;;;;5033702;28;20025;-26
2022/07/16 11:16:12;;;;;;;3.33;0.85;;;25.60;69.30;;;;;;5033486;28;20037;-25
2022/07/16 11:18:38;;;;;;;3.10;0.88;;;25.60;69.30;;;;;;5033421;28;20032;-26
2022/07/16 11:21:08;;;;;;;2.22;0.95;;;25.60;69.30;;;;;;5033419;28;20018;-26
2022/07/16 11:24:06;;;;;;;1.42;0.70;;;25.60;69.30;;;;;;5033476;28;20048;-26
2022/07/16 11:26:31;;;;;;;1.50;0.90;;;25.60;69.30;;;;;;5010667;28;20494;-26
2022/07/16 11:29:02;;;;;;;2.78;0.70;;;25.60;69.30;;;;;;5033096;28;20056;-26
2022/07/16 11:31:29;;;;;;;1.27;0.90;;;25.60;69.40;;;;;;5033399;28;20449;-26
2022/07/16 11:34:06;;;;;;;1.67;0.90;;;25.60;69.40;;;;;;5033264;28;20021;-26
2022/07/16 11:36:38;;;;;;;1.70;0.90;;;25.70;69.40;;;;;;5033152;28;20049;-26
2022/07/16 11:39:07;;;;;;;1.58;0.80;;;25.70;69.50;;;;;;5033172;28;20025;-26
2022/07/16 11:41:35;;;;;;;1.92;1.08;;;25.70;69.40;;;;;;5033134;28;20029;-25
2022/07/16 11:44:08;;;;;;;1.17;0.68;;;25.70;69.50;;;;;;5033537;28;20025;-26
2022/07/16 11:46:40;;;;;;;1.20;0.70;;;25.70;69.50;;;;;;5032879;28;20021;-26
2022/07/16 11:49:06;;;;;;;1.48;0.85;;;25.70;69.50;;;;;;5032753;28;20471;-26
2022/07/16 11:51:31;;;;;;;1.02;0.68;;;25.70;69.50;;;;;;5032908;28;20052;-26
2022/07/16 11:53:57;;;;;;;1.45;0.80;;;25.80;69.60;;;;;;5033005;28;20100;-26
2022/07/16 11:56:35;;;;;;;1.63;0.90;;;25.70;69.60;;;;;;5033254;28;20029;-26
2022/07/16 11:59:02;;;;;;;2.10;0.90;;;25.70;69.50;;;;;;5032467;28;20067;-26
2022/07/16 12:01:32;;;;;;;1.27;0.80;;;25.70;69.60;;;;;;5031969;28;20022;-26
2022/07/16 12:03:58;;;;;;;1.42;0.80;;;25.70;69.70;;;;;;5032713;28;20021;-26
2022/07/16 12:06:23;;;;;;;1.80;0.88;;;25.80;69.70;;;;;;5032675;28;20034;-26
2022/07/16 12:08:56;;;;;;;1.17;0.80;;;25.80;69.80;;;;;;5032414;28;20101;-26
2022/07/16 12:11:33;;;;;;;3.22;0.77;;;25.80;69.80;;;;;;5032638;28;20033;-26
2022/07/16 12:14:00;;;;;;;1.70;0.80;;;25.80;69.80;;;;;;5032550;28;20071;-26
2022/07/16 12:16:26;;;;;;;1.27;0.88;;;25.70;69.90;;;;;;5032409;28;20018;-26
2022/07/16 12:19:10;;;;;;;1.38;0.85;;;25.70;69.90;;;;;;5032111;28;20500;-26
2022/07/16 12:21:37;;;;;;;3.53;0.88;;;25.80;70.00;;;;;;5032476;28;20096;-26
2022/07/16 12:24:04;;;;;;;0.85;0.60;;;25.70;70.00;;;;;;5032288;28;20064;-26
2022/07/16 12:26:34;;;;;;;1.02;0.60;;;25.70;70.00;;;;;;5032410;28;20040;-26
2022/07/16 12:29:01;;;;;;;1.30;0.77;;;25.80;70.00;;;;;;5031988;28;20022;-26
2022/07/16 12:31:29;;;;;;;1.70;0.95;;;25.70;70.00;;;;;;5032296;28;20076;-26
2022/07/16 12:33:56;;;;;;;0.90;0.73;;;25.80;70.00;;;;;;5032206;28;20030;-26
2022/07/16 12:36:32;;;;;;;2.45;0.85;;;25.80;70.00;;;;;;5032149;28;20482;-26
2022/07/16 12:39:02;;;;;;;1.55;0.80;;;25.80;70.00;;;;;;5030557;28;20026;-26
2022/07/16 12:41:31;;;;;;;2.08;0.90;;;25.80;70.10;;;;;;5032156;28;20024;-26
2022/07/16 12:44:03;;;;;;;1.25;0.60;;;25.80;70.00;;;;;;5032125;28;20014;-26
2022/07/16 12:46:53;;;;;;;1.48;0.70;;;25.80;70.10;;;;;;5032201;28;20393;-26
2022/07/16 12:49:21;;;;;;;3.00;0.75;;;25.80;70.00;;;;;;5031323;28;20414;-26
2022/07/16 12:51:52;;;;;;;2.55;0.80;;;25.90;70.20;;;;;;5032015;28;20021;-26
2022/07/16 12:54:19;;;;;;;1.08;0.70;;;25.80;70.00;;;;;;5032045;28;20613;-26
2022/07/16 12:59:32;;;;;;;1.38;0.80;;;25.90;70.10;;;;;;5031542;28;20040;-26